Time;durP1;ratioP1;P1;durP2;ratioP2;P2;SDS_P1;SDS_P2;PMS_P1;PMS_P2;Temp;Humidity;BMP_temperature;BMP_pressure;BME280_temperature;BME280_humidity;BME280_pressure;Samples;Min_cycle;Max_cycle;Signal;HPM_P1;HPM_P2
2023/12/09 00:00:47;;;;;;;16.17;5.90;;;;;;;;;;4944163;28;20086;-60
2023/12/09 00:03:15;;;;;;;15.77;3.08;;;;;;;;;;4953978;28;20078;-61
2023/12/09 00:05:42;;;;;;;10.57;3.00;;;;;;;;;;4970803;28;20083;-64
2023/12/09 00:08:08;;;;;;;16.25;3.70;;;;;;;;;;4964532;28;20130;-61
2023/12/09 00:10:35;;;;;;;22.25;3.67;;;;;;;;;;4973556;28;20039;-62
2023/12/09 00:13:02;;;;;;;11.20;2.97;;;;;;;;;;4968294;28;20056;-64
2023/12/09 00:15:28;;;;;;;12.07;2.65;;;;;;;;;;4955564;28;20063;-63
2023/12/09 00:17:55;;;;;;;11.43;3.38;;;;;;;;;;4957594;28;20059;-62
2023/12/09 00:20:23;;;;;;;11.63;3.30;;;;;;;;;;4956888;28;20067;-64
2023/12/09 00:22:50;;;;;;;19.77;2.92;;;;;;;;;;4967051;28;20055;-65
2023/12/09 00:25:17;;;;;;;17.13;3.38;;;;;;;;;;4956170;28;20082;-65
2023/12/09 00:27:43;;;;;;;11.98;3.42;;;;;;;;;;4964021;28;20245;-62
2023/12/09 00:30:10;;;;;;;12.20;3.00;;;;;;;;;;4954546;28;20138;-62
2023/12/09 00:32:36;;;;;;;12.43;2.47;;;;;;;;;;4953805;28;20138;-63
2023/12/09 00:35:03;;;;;;;13.77;3.15;;;;;;;;;;4940992;28;20145;-63
2023/12/09 00:37:31;;;;;;;14.48;3.35;;;;;;;;;;4960257;28;20059;-60
2023/12/09 00:39:58;;;;;;;25.75;4.50;;;;;;;;;;4956004;28;20055;-61
2023/12/09 00:42:24;;;;;;;11.85;3.38;;;;;;;;;;4943495;28;20047;-61
2023/12/09 00:44:51;;;;;;;15.82;3.58;;;;;;;;;;4952328;28;20258;-63
2023/12/09 00:47:18;;;;;;;11.38;3.65;;;;;;;;;;4943529;28;20055;-63
2023/12/09 00:49:45;;;;;;;12.80;3.63;;;;;;;;;;4971440;28;20047;-61
2023/12/09 00:52:12;;;;;;;14.77;3.15;;;;;;;;;;4953655;28;20149;-64
2023/12/09 00:54:40;;;;;;;21.83;3.38;;;;;;;;;;4971750;28;20046;-63
2023/12/09 00:57:07;;;;;;;13.98;3.30;;;;;;;;;;4959863;28;20361;-62
2023/12/09 00:59:34;;;;;;;12.40;3.15;;;;;;;;;;4962454;28;20051;-61
2023/12/09 01:02:00;;;;;;;12.88;3.53;;;;;;;;;;4957838;28;20062;-60
2023/12/09 01:04:27;;;;;;;7.05;2.03;;;;;;;;;;4941525;28;20094;-63
2023/12/09 01:06:54;;;;;;;11.00;3.13;;;;;;;;;;4968523;28;20050;-62
2023/12/09 01:09:24;;;;;;;8.55;3.22;;;;;;;;;;4945311;28;20055;-63
2023/12/09 01:11:52;;;;;;;17.13;3.13;;;;;;;;;;4958386;28;20054;-61
2023/12/09 01:14:18;;;;;;;7.90;2.70;;;;;;;;;;4945313;28;20066;-61
2023/12/09 01:16:45;;;;;;;8.45;2.80;;;;;;;;;;4966652;28;20137;-62
2023/12/09 01:19:12;;;;;;;14.45;2.92;;;;;;;;;;4958148;28;20219;-62
2023/12/09 01:21:39;;;;;;;9.98;2.83;;;;;;;;;;4965872;28;20039;-60
2023/12/09 01:24:06;;;;;;;12.55;3.15;;;;;;;;;;4955861;28;20059;-61
2023/12/09 01:26:33;;;;;;;11.70;2.40;;;;;;;;;;4944339;28;20074;-62
2023/12/09 01:29:03;;;;;;;13.40;3.08;;;;;;;;;;4942730;28;20055;-64
2023/12/09 01:31:30;;;;;;;11.15;3.45;;;;;;;;;;4940848;28;20061;-62
2023/12/09 01:33:56;;;;;;;13.52;3.38;;;;;;;;;;4940047;28;20063;-62
2023/12/09 01:36:23;;;;;;;17.10;3.38;;;;;;;;;;4962153;28;20058;-62
2023/12/09 01:38:50;;;;;;;7.47;2.67;;;;;;;;;;4963295;28;20082;-62
2023/12/09 01:41:17;;;;;;;10.65;3.33;;;;;;;;;;4982946;28;20093;-63
2023/12/09 01:43:48;;;;;;;13.63;2.90;;;;;;;;;;4955596;28;20055;-61
2023/12/09 01:46:18;;;;;;;9.02;2.72;;;;;;;;;;4946967;28;20078;-63
2023/12/09 01:48:45;;;;;;;18.23;3.38;;;;;;;;;;4937571;28;20066;-61
2023/12/09 01:51:13;;;;;;;9.45;3.30;;;;;;;;;;4958561;28;20059;-61
2023/12/09 01:53:40;;;;;;;10.77;2.58;;;;;;;;;;4946215;28;20054;-64
2023/12/09 01:56:11;;;;;;;7.28;2.40;;;;;;;;;;4943241;28;20059;-61
2023/12/09 01:58:38;;;;;;;15.50;3.85;;;;;;;;;;4961172;28;20039;-64
2023/12/09 02:01:05;;;;;;;19.13;3.28;;;;;;;;;;4971546;28;20150;-64
2023/12/09 02:03:34;;;;;;;13.45;3.58;;;;;;;;;;4966507;28;20059;-62
2023/12/09 02:06:01;;;;;;;14.43;3.83;;;;;;;;;;4954948;28;20165;-63
2023/12/09 02:08:28;;;;;;;13.07;3.63;;;;;;;;;;4974124;28;20071;-60
2023/12/09 02:11:06;;;;;;;24.75;4.15;;;;;;;;;;4943362;28;20070;-61
2023/12/09 02:13:41;;;;;;;10.43;3.00;;;;;;;;;;4946230;28;20066;-62
2023/12/09 02:16:12;;;;;;;12.50;2.97;;;;;;;;;;4942828;28;20067;-63
2023/12/09 02:18:42;;;;;;;12.57;3.47;;;;;;;;;;4959751;28;20065;-62
2023/12/09 02:21:08;;;;;;;13.23;2.90;;;;;;;;;;4962175;28;20078;-64
2023/12/09 02:23:36;;;;;;;11.48;2.95;;;;;;;;;;4963101;28;20062;-63
2023/12/09 02:26:08;;;;;;;10.13;3.28;;;;;;;;;;4971874;28;20151;-62
2023/12/09 02:28:40;;;;;;;17.58;2.78;;;;;;;;;;4955007;28;20047;-62
2023/12/09 02:31:13;;;;;;;12.20;2.97;;;;;;;;;;4956343;28;20090;-64
2023/12/09 02:33:43;;;;;;;14.10;3.20;;;;;;;;;;4950153;28;20059;-63
2023/12/09 02:36:11;;;;;;;10.70;2.83;;;;;;;;;;4956790;28;20073;-63
2023/12/09 02:38:41;;;;;;;9.95;2.75;;;;;;;;;;4989831;28;20035;-61
2023/12/09 02:41:08;;;;;;;11.43;3.22;;;;;;;;;;4971550;28;20051;-64
2023/12/09 02:43:34;;;;;;;11.07;3.35;;;;;;;;;;4944834;28;20095;-65
2023/12/09 02:46:01;;;;;;;10.40;2.85;;;;;;;;;;4972614;28;20090;-60
2023/12/09 02:48:27;;;;;;;13.13;3.80;;;;;;;;;;4943597;28;20055;-63
2023/12/09 02:50:54;;;;;;;13.48;3.33;;;;;;;;;;4968590;28;20141;-62
2023/12/09 02:53:21;;;;;;;11.82;3.53;;;;;;;;;;4964682;28;20154;-63
2023/12/09 02:55:49;;;;;;;11.70;3.53;;;;;;;;;;4968537;28;20057;-64
2023/12/09 02:58:16;;;;;;;13.43;3.22;;;;;;;;;;4974274;28;20059;-63
2023/12/09 03:00:42;;;;;;;23.20;3.70;;;;;;;;;;4946613;28;20050;-63
2023/12/09 03:03:09;;;;;;;13.45;4.15;;;;;;;;;;4952620;28;20151;-62
2023/12/09 03:05:36;;;;;;;11.95;3.58;;;;;;;;;;4937545;28;20266;-62
2023/12/09 03:08:02;;;;;;;21.38;4.72;;;;;;;;;;4956162;28;20125;-61
2023/12/09 03:10:29;;;;;;;8.52;3.15;;;;;;;;;;4939970;28;20151;-64
2023/12/09 03:12:57;;;;;;;15.55;4.35;;;;;;;;;;4941645;28;20051;-65
2023/12/09 03:15:24;;;;;;;18.75;4.20;;;;;;;;;;4941647;28;20056;-60
2023/12/09 03:17:50;;;;;;;13.82;3.97;;;;;;;;;;4959697;28;20051;-63
2023/12/09 03:20:18;;;;;;;14.20;3.85;;;;;;;;;;4942887;28;21497;-61
2023/12/09 03:22:44;;;;;;;10.63;3.50;;;;;;;;;;4941012;28;20098;-62
2023/12/09 03:25:11;;;;;;;10.10;3.83;;;;;;;;;;4957180;28;20088;-63
2023/12/09 03:27:38;;;;;;;13.15;4.88;;;;;;;;;;4949725;28;20062;-64
2023/12/09 03:30:08;;;;;;;17.67;3.67;;;;;;;;;;4935174;28;20137;-62
2023/12/09 03:32:34;;;;;;;17.50;4.22;;;;;;;;;;4957589;28;20059;-63
2023/12/09 03:35:01;;;;;;;15.77;3.17;;;;;;;;;;4971863;28;20138;-61
2023/12/09 03:37:27;;;;;;;14.43;3.53;;;;;;;;;;4949390;28;20106;-64
2023/12/09 03:39:54;;;;;;;10.57;3.35;;;;;;;;;;4953003;28;20070;-65
2023/12/09 03:42:21;;;;;;;15.07;3.65;;;;;;;;;;4967201;28;20059;-64
2023/12/09 03:44:47;;;;;;;6.38;2.83;;;;;;;;;;4979693;28;20063;-61
2023/12/09 03:47:15;;;;;;;16.30;3.97;;;;;;;;;;4952204;28;20153;-64
2023/12/09 03:49:42;;;;;;;12.93;3.75;;;;;;;;;;4958307;28;20059;-62
2023/12/09 03:52:08;;;;;;;10.82;3.95;;;;;;;;;;4968476;28;20070;-64
2023/12/09 03:54:37;;;;;;;17.85;3.47;;;;;;;;;;4950658;28;20151;-63
2023/12/09 03:57:04;;;;;;;19.77;4.00;;;;;;;;;;4965830;28;20077;-64
2023/12/09 03:59:31;;;;;;;18.45;4.78;;;;;;;;;;4939426;28;20122;-62
2023/12/09 04:02:00;;;;;;;12.35;3.72;;;;;;;;;;4955585;28;20125;-63
2023/12/09 04:04:29;;;;;;;11.65;3.72;;;;;;;;;;4958333;28;20149;-64
2023/12/09 04:06:55;;;;;;;;;;;;;;;;;;4942460;28;20141;-62
2023/12/09 04:09:22;;;;;;;15.55;3.15;;;;;;;;;;4945476;28;19926;-63
2023/12/09 04:11:49;;;;;;;13.15;3.53;;;;;;;;;;4952860;28;20059;-65
2023/12/09 04:14:16;;;;;;;16.00;3.80;;;;;;;;;;4948794;28;20078;-64
2023/12/09 04:16:43;;;;;;;13.40;4.28;;;;;;;;;;4955785;28;20114;-63
2023/12/09 04:19:10;;;;;;;11.80;3.22;;;;;;;;;;4957717;28;20070;-63
2023/12/09 04:21:38;;;;;;;9.82;3.47;;;;;;;;;;4955356;28;20117;-61
2023/12/09 04:24:05;;;;;;;8.73;3.40;;;;;;;;;;4949173;28;20067;-63
2023/12/09 04:26:31;;;;;;;15.10;3.67;;;;;;;;;;4945342;28;20200;-63
2023/12/09 04:28:58;;;;;;;12.80;3.33;;;;;;;;;;4981382;28;20058;-63
2023/12/09 04:31:25;;;;;;;16.33;3.47;;;;;;;;;;4972695;28;20051;-63
2023/12/09 04:33:51;;;;;;;8.63;2.90;;;;;;;;;;4954837;28;20074;-64
2023/12/09 04:36:18;;;;;;;7.90;2.83;;;;;;;;;;4943615;28;20871;-63
2023/12/09 04:38:46;;;;;;;10.30;4.00;;;;;;;;;;4954582;28;20087;-63
2023/12/09 04:41:13;;;;;;;14.45;3.08;;;;;;;;;;4964155;28;20047;-62
2023/12/09 04:43:39;;;;;;;14.20;3.28;;;;;;;;;;4955585;28;20118;-62
2023/12/09 04:46:06;;;;;;;10.50;4.03;;;;;;;;;;4963335;28;20054;-62
2023/12/09 04:48:33;;;;;;;15.43;4.05;;;;;;;;;;4952507;28;20203;-63
2023/12/09 04:50:59;;;;;;;9.95;3.63;;;;;;;;;;4941763;28;20153;-63
2023/12/09 04:53:26;;;;;;;9.52;3.28;;;;;;;;;;4950904;28;20092;-63
2023/12/09 04:55:54;;;;;;;15.80;4.38;;;;;;;;;;4947781;28;20138;-60
2023/12/09 04:58:21;;;;;;;9.82;3.58;;;;;;;;;;4960729;28;20051;-63
2023/12/09 05:00:47;;;;;;;13.70;3.40;;;;;;;;;;4967572;28;20071;-64
2023/12/09 05:03:14;;;;;;;16.25;3.80;;;;;;;;;;4933111;28;20083;-64
2023/12/09 05:05:41;;;;;;;12.27;3.78;;;;;;;;;;4967308;28;20093;-62
2023/12/09 05:08:08;;;;;;;9.00;3.47;;;;;;;;;;4949744;28;20040;-64
2023/12/09 05:10:34;;;;;;;10.38;3.10;;;;;;;;;;4971124;28;20051;-62
2023/12/09 05:13:02;;;;;;;8.43;2.67;;;;;;;;;;4951142;28;20070;-61
2023/12/09 05:15:29;;;;;;;9.70;2.60;;;;;;;;;;4964984;28;20051;-64
2023/12/09 05:17:56;;;;;;;12.52;3.00;;;;;;;;;;4946110;28;20067;-62
2023/12/09 05:20:23;;;;;;;11.85;2.42;;;;;;;;;;4970784;28;20078;-64
2023/12/09 05:22:50;;;;;;;9.23;1.92;;;;;;;;;;4938754;28;20091;-65
2023/12/09 05:25:16;;;;;;;7.78;2.05;;;;;;;;;;4945618;28;20218;-61
2023/12/09 05:27:43;;;;;;;14.10;2.47;;;;;;;;;;4946557;28;20062;-63
2023/12/09 05:30:12;;;;;;;9.55;2.13;;;;;;;;;;4954471;28;20074;-62
2023/12/09 05:32:39;;;;;;;6.43;1.98;;;;;;;;;;4946677;28;20062;-64
2023/12/09 05:35:08;;;;;;;10.35;2.65;;;;;;;;;;4949673;28;20102;-62
2023/12/09 05:37:34;;;;;;;7.03;2.28;;;;;;;;;;4958866;28;20088;-64
2023/12/09 05:40:01;;;;;;;6.68;2.17;;;;;;;;;;4951702;28;20062;-64
2023/12/09 05:42:28;;;;;;;6.88;2.22;;;;;;;;;;4945457;29;20047;-62
2023/12/09 05:44:55;;;;;;;13.35;3.65;;;;;;;;;;4955092;28;20067;-60
2023/12/09 05:47:24;;;;;;;9.95;2.10;;;;;;;;;;4941472;28;21022;-61
2023/12/09 05:49:51;;;;;;;10.60;2.22;;;;;;;;;;4941734;28;20055;-63
2023/12/09 05:52:18;;;;;;;8.63;2.28;;;;;;;;;;4952923;28;20945;-61
2023/12/09 05:54:44;;;;;;;5.03;1.92;;;;;;;;;;4960329;28;20069;-61
2023/12/09 05:57:11;;;;;;;11.95;2.60;;;;;;;;;;4961327;28;20047;-61
2023/12/09 05:59:38;;;;;;;11.40;2.58;;;;;;;;;;4947512;28;20043;-61
2023/12/09 06:02:05;;;;;;;14.48;2.72;;;;;;;;;;4937854;28;20066;-64
2023/12/09 06:04:33;;;;;;;8.38;1.98;;;;;;;;;;4943614;28;20059;-63
2023/12/09 06:06:59;;;;;;;13.65;2.08;;;;;;;;;;4963785;28;20051;-64
2023/12/09 06:09:26;;;;;;;11.13;1.90;;;;;;;;;;4956492;28;20142;-61
2023/12/09 06:11:53;;;;;;;8.43;2.17;;;;;;;;;;4940446;28;20074;-63
2023/12/09 06:14:19;;;;;;;10.27;2.35;;;;;;;;;;4965685;28;20059;-63
2023/12/09 06:16:46;;;;;;;5.80;1.80;;;;;;;;;;4983888;28;20059;-63
2023/12/09 06:19:13;;;;;;;9.80;2.33;;;;;;;;;;4947381;28;20051;-64
2023/12/09 06:21:41;;;;;;;13.35;2.28;;;;;;;;;;4957336;28;20059;-65
2023/12/09 06:24:07;;;;;;;7.50;1.73;;;;;;;;;;4946220;28;20147;-65
2023/12/09 06:26:33;;;;;;;8.60;2.33;;;;;;;;;;4955133;28;20055;-64
2023/12/09 06:29:00;;;;;;;8.75;2.28;;;;;;;;;;4962036;28;20083;-65
2023/12/09 06:31:27;;;;;;;18.40;1.98;;;;;;;;;;4940790;28;20138;-63
2023/12/09 06:33:53;;;;;;;8.30;2.13;;;;;;;;;;4937097;28;20055;-62
2023/12/09 06:36:20;;;;;;;8.60;2.33;;;;;;;;;;4954877;28;20086;-64
2023/12/09 06:38:48;;;;;;;9.63;2.80;;;;;;;;;;4945404;28;20071;-63
2023/12/09 06:41:15;;;;;;;8.18;1.98;;;;;;;;;;4968158;28;20066;-64
2023/12/09 06:43:42;;;;;;;11.55;2.30;;;;;;;;;;4938069;28;20102;-61
2023/12/09 06:46:08;;;;;;;7.18;1.85;;;;;;;;;;4937684;28;20083;-63
2023/12/09 06:48:37;;;;;;;6.03;1.75;;;;;;;;;;4944173;28;20051;-60
2023/12/09 06:51:06;;;;;;;5.90;2.05;;;;;;;;;;4941534;28;20082;-63
2023/12/09 06:53:33;;;;;;;7.75;2.05;;;;;;;;;;4978853;28;20055;-60
2023/12/09 06:56:01;;;;;;;6.47;1.90;;;;;;;;;;4942538;28;20059;-61
2023/12/09 06:58:28;;;;;;;8.55;1.90;;;;;;;;;;4971214;28;20134;-65
2023/12/09 07:00:55;;;;;;;9.80;2.25;;;;;;;;;;4937696;28;20074;-63
2023/12/09 07:03:21;;;;;;;10.15;1.83;;;;;;;;;;4955351;28;20110;-66
2023/12/09 07:05:51;;;;;;;7.50;2.00;;;;;;;;;;4950581;28;20070;-63
2023/12/09 07:08:18;;;;;;;15.98;2.40;;;;;;;;;;4956637;28;20055;-61
2023/12/09 07:10:46;;;;;;;15.70;2.47;;;;;;;;;;4958310;28;20055;-62
2023/12/09 07:13:14;;;;;;;7.13;1.87;;;;;;;;;;4938984;28;20066;-63
2023/12/09 07:15:40;;;;;;;9.45;1.80;;;;;;;;;;4948357;28;20302;-64
2023/12/09 07:18:07;;;;;;;4.75;1.70;;;;;;;;;;4946663;28;20150;-64
2023/12/09 07:20:34;;;;;;;4.13;1.38;;;;;;;;;;4979310;28;20065;-64
2023/12/09 07:23:01;;;;;;;6.85;1.95;;;;;;;;;;4954859;28;20075;-66
2023/12/09 07:25:28;;;;;;;5.40;2.35;;;;;;;;;;4934900;28;20158;-64
2023/12/09 07:27:55;;;;;;;6.40;1.60;;;;;;;;;;4958077;28;20058;-63
2023/12/09 07:30:23;;;;;;;16.98;2.38;;;;;;;;;;4952559;28;20047;-64
2023/12/09 07:32:50;;;;;;;5.88;1.88;;;;;;;;;;4955928;28;20066;-60
2023/12/09 07:35:18;;;;;;;2.28;1.27;;;;;;;;;;4949768;28;20063;-63
2023/12/09 07:37:44;;;;;;;11.70;1.87;;;;;;;;;;4956560;28;20159;-61
2023/12/09 07:40:12;;;;;;;16.17;2.55;;;;;;;;;;4936436;28;20366;-65
2023/12/09 07:42:39;;;;;;;6.53;1.85;;;;;;;;;;4955810;28;20051;-64
2023/12/09 07:45:07;;;;;;;14.52;2.28;;;;;;;;;;4949239;28;20093;-63
2023/12/09 07:47:35;;;;;;;6.40;1.63;;;;;;;;;;4943604;28;20063;-63
2023/12/09 07:50:02;;;;;;;12.10;1.83;;;;;;;;;;4959973;28;20051;-62
2023/12/09 07:52:29;;;;;;;6.60;2.17;;;;;;;;;;4958165;28;20058;-66
2023/12/09 07:54:56;;;;;;;4.88;1.92;;;;;;;;;;4936067;28;20059;-65
2023/12/09 07:57:22;;;;;;;7.35;1.75;;;;;;;;;;4937948;28;20063;-61
2023/12/09 07:59:49;;;;;;;12.50;2.58;;;;;;;;;;4987482;28;20046;-61
2023/12/09 08:02:16;;;;;;;6.07;1.70;;;;;;;;;;4951773;28;20039;-62
2023/12/09 08:04:44;;;;;;;6.97;1.67;;;;;;;;;;4970175;28;20137;-61
2023/12/09 08:07:11;;;;;;;11.80;1.90;;;;;;;;;;4939334;28;20131;-63
2023/12/09 08:09:37;;;;;;;5.50;1.95;;;;;;;;;;4946253;28;20129;-61
2023/12/09 08:12:05;;;;;;;6.70;1.67;;;;;;;;;;4950451;28;20059;-61
2023/12/09 08:14:31;;;;;;;8.18;2.25;;;;;;;;;;4948047;28;20047;-63
2023/12/09 08:16:58;;;;;;;11.30;2.03;;;;;;;;;;4968077;28;20058;-61
2023/12/09 08:19:25;;;;;;;10.20;1.83;;;;;;;;;;4955096;28;20074;-62
2023/12/09 08:21:59;;;;;;;4.70;1.77;;;;;;;;;;4967398;28;20055;-62
2023/12/09 08:24:26;;;;;;;5.13;1.80;;;;;;;;;;4961581;28;20161;-63
2023/12/09 08:26:53;;;;;;;5.05;1.38;;;;;;;;;;4955237;28;20138;-65
2023/12/09 08:29:20;;;;;;;5.53;1.52;;;;;;;;;;4956762;28;20142;-63
2023/12/09 08:31:49;;;;;;;11.30;1.92;;;;;;;;;;4961594;28;20130;-61
2023/12/09 08:34:16;;;;;;;6.82;1.73;;;;;;;;;;4964906;28;20142;-64
2023/12/09 08:36:43;;;;;;;13.40;2.22;;;;;;;;;;4957731;28;20062;-65
2023/12/09 08:39:11;;;;;;;6.97;1.38;;;;;;;;;;4940611;28;20086;-62
2023/12/09 08:41:38;;;;;;;7.15;1.70;;;;;;;;;;4971452;28;20059;-63
2023/12/09 08:44:05;;;;;;;5.47;1.80;;;;;;;;;;4947440;28;20226;-63
2023/12/09 08:46:32;;;;;;;7.03;1.77;;;;;;;;;;4939322;28;20059;-60
2023/12/09 08:48:59;;;;;;;6.60;1.58;;;;;;;;;;4970994;28;20114;-62
2023/12/09 08:51:26;;;;;;;8.45;1.70;;;;;;;;;;4941016;28;20154;-61
2023/12/09 08:53:53;;;;;;;11.68;1.77;;;;;;;;;;4950037;28;20063;-63
2023/12/09 08:56:21;;;;;;;7.18;1.70;;;;;;;;;;4951965;28;20112;-65
2023/12/09 08:58:47;;;;;;;3.47;1.15;;;;;;;;;;4954137;28;20055;-63
2023/12/09 09:01:14;;;;;;;4.97;1.67;;;;;;;;;;4955705;28;20051;-65
2023/12/09 09:03:41;;;;;;;15.18;1.83;;;;;;;;;;4964308;28;20226;-61
2023/12/09 09:06:10;;;;;;;5.82;1.80;;;;;;;;;;4944095;28;20067;-60
2023/12/09 09:08:37;;;;;;;12.23;1.92;;;;;;;;;;4959655;28;20051;-65
2023/12/09 09:11:04;;;;;;;6.78;1.70;;;;;;;;;;4958582;28;20179;-62
2023/12/09 09:13:33;;;;;;;7.90;1.50;;;;;;;;;;4942489;28;20066;-64
2023/12/09 09:16:00;;;;;;;9.13;1.60;;;;;;;;;;4948047;28;20055;-60
2023/12/09 09:18:29;;;;;;;6.60;1.73;;;;;;;;;;4940948;28;20047;-61
2023/12/09 09:20:55;;;;;;;;;;;;;;;;;;4944310;28;20106;-64
2023/12/09 09:23:22;;;;;;;6.25;1.52;;;;;;;;;;4947513;28;20033;-62
2023/12/09 09:25:49;;;;;;;4.70;1.40;;;;;;;;;;4946314;28;20082;-62
2023/12/09 09:28:16;;;;;;;10.25;2.35;;;;;;;;;;4939590;28;20126;-65
2023/12/09 09:30:44;;;;;;;5.47;1.42;;;;;;;;;;4973128;28;20059;-61
2023/12/09 09:33:11;;;;;;;6.32;2.08;;;;;;;;;;4950485;28;20051;-63
2023/12/09 09:35:38;;;;;;;4.97;1.75;;;;;;;;;;4958503;28;20054;-60
2023/12/09 09:38:05;;;;;;;9.77;2.60;;;;;;;;;;4945170;28;20070;-64
2023/12/09 09:40:32;;;;;;;10.02;1.80;;;;;;;;;;4958496;28;20057;-62
2023/12/09 09:43:04;;;;;;;4.50;1.50;;;;;;;;;;4985465;28;20067;-63
2023/12/09 09:45:33;;;;;;;7.18;1.63;;;;;;;;;;4939932;28;20051;-62
2023/12/09 09:48:04;;;;;;;8.15;1.75;;;;;;;;;;4937972;28;20070;-62
2023/12/09 09:50:35;;;;;;;7.05;2.30;;;;;;;;;;4956389;28;20058;-63
2023/12/09 09:53:05;;;;;;;8.27;1.77;;;;;;;;;;4958734;28;20145;-64
2023/12/09 09:55:33;;;;;;;5.40;1.38;;;;;;;;;;4939248;28;20061;-61
2023/12/09 09:58:00;;;;;;;2.95;1.25;;;;;;;;;;4952852;28;20070;-61
2023/12/09 10:00:28;;;;;;;7.95;2.00;;;;;;;;;;4973640;28;20131;-63
2023/12/09 10:02:55;;;;;;;6.45;1.75;;;;;;;;;;4945855;28;20222;-64
2023/12/09 10:05:23;;;;;;;6.95;1.58;;;;;;;;;;4943751;28;20135;-61
2023/12/09 10:07:50;;;;;;;7.53;1.35;;;;;;;;;;4927634;28;20056;-60
2023/12/09 10:10:17;;;;;;;5.00;1.55;;;;;;;;;;4931476;28;20063;-62
2023/12/09 10:12:45;;;;;;;6.85;1.48;;;;;;;;;;4917675;29;20165;-65
2023/12/09 10:15:13;;;;;;;7.68;1.98;;;;;;;;;;4920597;28;20051;-63
2023/12/09 10:17:40;;;;;;;8.38;1.38;;;;;;;;;;4924382;28;20056;-64
2023/12/09 10:20:09;;;;;;;6.78;1.88;;;;;;;;;;4922296;28;20047;-63
2023/12/09 10:22:38;;;;;;;21.77;5.18;;;;;;;;;;4950193;28;20059;-65
2023/12/09 10:25:06;;;;;;;11.77;4.70;;;;;;;;;;4922566;28;20047;-66
2023/12/09 10:27:34;;;;;;;12.48;2.85;;;;;;;;;;4939446;28;20122;-64
2023/12/09 10:30:02;;;;;;;10.75;3.00;;;;;;;;;;4933946;28;20062;-66
2023/12/09 10:32:32;;;;;;;6.07;1.70;;;;;;;;;;4936938;28;20059;-67
2023/12/09 10:34:59;;;;;;;7.10;1.80;;;;;;;;;;4939920;28;20055;-66
2023/12/09 10:37:29;;;;;;;6.72;1.65;;;;;;;;;;4923244;28;20114;-64
2023/12/09 10:40:02;;;;;;;14.50;2.17;;;;;;;;;;4923669;28;20047;-62
2023/12/09 10:42:30;;;;;;;17.25;1.95;;;;;;;;;;4926715;28;20058;-62
2023/12/09 10:44:57;;;;;;;6.70;1.80;;;;;;;;;;4914637;28;20057;-62
2023/12/09 10:47:25;;;;;;;5.63;1.58;;;;;;;;;;4927801;28;20138;-61
2023/12/09 10:49:52;;;;;;;6.90;1.73;;;;;;;;;;4933602;28;20048;-63
2023/12/09 10:52:19;;;;;;;6.10;1.73;;;;;;;;;;4923920;28;20054;-61
2023/12/09 10:54:46;;;;;;;5.50;1.40;;;;;;;;;;4923777;28;20043;-61
2023/12/09 10:57:15;;;;;;;11.50;2.35;;;;;;;;;;4928996;28;20055;-63
2023/12/09 10:59:43;;;;;;;7.03;2.40;;;;;;;;;;4928122;28;20059;-63
2023/12/09 11:02:10;;;;;;;9.32;1.65;;;;;;;;;;4916069;28;20471;-61
2023/12/09 11:04:37;;;;;;;9.77;1.63;;;;;;;;;;4897642;28;20240;-64
2023/12/09 11:07:08;;;;;;;8.60;1.75;;;;;;;;;;4942165;28;20062;-64
2023/12/09 11:09:37;;;;;;;6.43;1.35;;;;;;;;;;4961828;28;20047;-66
2023/12/09 11:12:05;;;;;;;7.05;2.08;;;;;;;;;;4957113;28;20051;-64
2023/12/09 11:14:38;;;;;;;6.50;1.20;;;;;;;;;;4940602;28;20132;-63
2023/12/09 11:17:36;;;;;;;8.35;1.95;;;;;;;;;;4967913;28;20079;-64
2023/12/09 11:20:10;;;;;;;8.70;1.52;;;;;;;;;;4972317;28;20074;-64
2023/12/09 11:22:42;;;;;;;4.18;1.42;;;;;;;;;;4957786;28;20058;-64
2023/12/09 11:25:12;;;;;;;4.90;1.20;;;;;;;;;;4936750;28;20113;-65
2023/12/09 11:27:39;;;;;;;5.55;1.50;;;;;;;;;;4978343;28;20063;-66
2023/12/09 11:30:30;;;;;;;5.78;1.45;;;;;;;;;;4952281;28;20161;-64
2023/12/09 11:33:00;;;;;;;6.25;1.60;;;;;;;;;;4965509;28;20055;-66
2023/12/09 11:35:29;;;;;;;4.23;1.37;;;;;;;;;;4966002;28;20075;-64
2023/12/09 11:38:00;;;;;;;5.18;1.45;;;;;;;;;;4980279;28;20059;-66
2023/12/09 11:40:30;;;;;;;1.13;1.02;;;;;;;;;;4949997;28;20054;-65
2023/12/09 11:43:03;;;;;;;5.78;1.65;;;;;;;;;;4965680;28;20054;-64
2023/12/09 11:45:31;;;;;;;4.82;1.30;;;;;;;;;;4892259;28;20051;-66
2023/12/09 11:48:06;;;;;;;6.50;1.70;;;;;;;;;;4886835;29;20099;-65
2023/12/09 11:50:33;;;;;;;5.88;1.52;;;;;;;;;;4901363;29;20176;-63
2023/12/09 11:53:05;;;;;;;3.25;1.13;;;;;;;;;;4890361;29;20067;-63
2023/12/09 11:55:37;;;;;;;8.75;1.50;;;;;;;;;;4889438;28;20125;-65
2023/12/09 11:58:07;;;;;;;4.50;1.60;;;;;;;;;;4942491;28;20147;-66
2023/12/09 12:00:35;;;;;;;3.25;1.10;;;;;;;;;;4960822;28;20062;-66
2023/12/09 12:03:03;;;;;;;3.83;1.20;;;;;;;;;;4965666;28;20054;-67
2023/12/09 12:05:33;;;;;;;6.80;1.37;;;;;;;;;;4922940;28;20055;-67
2023/12/09 12:08:04;;;;;;;2.35;0.90;;;;;;;;;;4930940;28;20047;-67
2023/12/09 12:10:31;;;;;;;6.45;1.48;;;;;;;;;;4975165;28;20078;-67
2023/12/09 12:12:58;;;;;;;4.28;1.38;;;;;;;;;;4967466;28;20074;-65
2023/12/09 12:15:25;;;;;;;4.63;1.25;;;;;;;;;;4969984;28;20049;-64
2023/12/09 12:17:54;;;;;;;5.10;1.05;;;;;;;;;;4946326;28;20102;-65
2023/12/09 12:20:20;;;;;;;;;;;;;;;;;;4959021;28;20054;-67
2023/12/09 12:22:47;;;;;;;4.63;1.63;;;;;;;;;;4970449;28;19969;-67
2023/12/09 12:25:14;;;;;;;4.78;1.10;;;;;;;;;;4931628;28;20059;-65
2023/12/09 12:27:44;;;;;;;10.80;1.75;;;;;;;;;;4955857;28;20058;-66
2023/12/09 12:30:13;;;;;;;4.53;1.40;;;;;;;;;;4967323;28;20059;-64
2023/12/09 12:32:40;;;;;;;2.65;0.82;;;;;;;;;;4947812;29;20039;-66
2023/12/09 12:35:09;;;;;;;3.97;1.10;;;;;;;;;;4909805;28;20053;-65
2023/12/09 12:37:36;;;;;;;5.38;1.02;;;;;;;;;;4962780;28;20050;-67
2023/12/09 12:40:09;;;;;;;3.70;1.10;;;;;;;;;;4973215;28;20043;-67
2023/12/09 12:42:37;;;;;;;6.40;1.20;;;;;;;;;;4968194;28;20047;-65
2023/12/09 12:45:19;;;;;;;5.35;1.17;;;;;;;;;;4896764;28;20058;-64
2023/12/09 12:47:52;;;;;;;7.20;1.40;;;;;;;;;;4942213;28;20146;-67
2023/12/09 12:50:22;;;;;;;2.90;1.08;;;;;;;;;;4974693;28;20043;-67
2023/12/09 12:52:53;;;;;;;5.13;1.45;;;;;;;;;;4959394;28;20051;-66
2023/12/09 12:55:41;;;;;;;;;;;;;;;;;;;;;
2023/12/09 12:58:10;;;;;;;6.30;1.20;;;;;;;;;;4943323;28;20055;-65
2023/12/09 13:00:40;;;;;;;3.75;1.02;;;;;;;;;;4960674;28;20067;-65
2023/12/09 13:03:09;;;;;;;3.45;0.88;;;;;;;;;;4962859;28;20058;-66
2023/12/09 13:05:41;;;;;;;3.83;1.10;;;;;;;;;;4933419;28;20059;-67
2023/12/09 13:08:08;;;;;;;6.30;1.17;;;;;;;;;;4942465;28;20061;-67
2023/12/09 13:10:36;;;;;;;3.25;0.98;;;;;;;;;;4976017;28;20084;-65
2023/12/09 13:13:07;;;;;;;3.60;0.77;;;;;;;;;;4975948;28;20055;-69
2023/12/09 13:15:39;;;;;;;4.10;1.20;;;;;;;;;;4923006;28;20054;-68
2023/12/09 13:18:07;;;;;;;6.18;1.48;;;;;;;;;;4967720;28;20059;-65
2023/12/09 13:20:37;;;;;;;3.58;0.95;;;;;;;;;;4960412;28;20138;-65
2023/12/09 13:23:06;;;;;;;1.90;0.70;;;;;;;;;;4980578;28;20118;-66
2023/12/09 13:25:33;;;;;;;1.83;0.68;;;;;;;;;;4918343;28;20075;-65
2023/12/09 13:28:05;;;;;;;1.65;0.90;;;;;;;;;;4938233;28;20047;-66
2023/12/09 13:30:41;;;;;;;0.77;0.40;;;;;;;;;;4953892;28;20083;-66
2023/12/09 13:33:16;;;;;;;2.13;0.70;;;;;;;;;;4956648;28;20048;-67
2023/12/09 13:35:43;;;;;;;3.13;0.90;;;;;;;;;;4897955;28;20131;-68
2023/12/09 13:38:11;;;;;;;1.60;0.70;;;;;;;;;;4902083;28;20140;-69
2023/12/09 13:40:44;;;;;;;2.90;0.80;;;;;;;;;;4904971;28;20048;-67
2023/12/09 13:43:10;;;;;;;1.92;0.73;;;;;;;;;;4921397;28;20060;-67
2023/12/09 13:45:37;;;;;;;2.10;0.75;;;;;;;;;;4964288;28;20085;-65
2023/12/09 13:48:04;;;;;;;3.60;1.10;;;;;;;;;;4945686;28;20095;-64
2023/12/09 13:50:34;;;;;;;2.13;0.70;;;;;;;;;;4963020;28;20055;-67
2023/12/09 13:53:07;;;;;;;4.28;0.90;;;;;;;;;;4964103;28;20040;-65
2023/12/09 13:55:36;;;;;;;2.78;0.98;;;;;;;;;;4897119;28;20980;-66
2023/12/09 13:58:04;;;;;;;1.33;0.70;;;;;;;;;;4900966;28;20052;-67
2023/12/09 14:00:41;;;;;;;4.22;0.98;;;;;;;;;;4909942;28;20052;-65
2023/12/09 14:03:08;;;;;;;1.85;0.70;;;;;;;;;;4911239;29;20268;-65
2023/12/09 14:05:43;;;;;;;3.05;0.77;;;;;;;;;;4913083;28;20193;-65
2023/12/09 14:08:12;;;;;;;2.65;1.08;;;;;;;;;;4903468;28;20144;-67
2023/12/09 14:10:44;;;;;;;4.97;0.82;;;;;;;;;;4942347;28;20051;-67
2023/12/09 14:13:11;;;;;;;2.97;0.85;;;;;;;;;;4979441;28;20054;-66
2023/12/09 14:15:38;;;;;;;3.55;0.90;;;;;;;;;;4955246;28;20138;-66
2023/12/09 14:18:15;;;;;;;2.38;0.65;;;;;;;;;;4983865;28;20051;-67
2023/12/09 14:20:52;;;;;;;1.92;0.82;;;;;;;;;;4948537;28;20134;-68
2023/12/09 14:23:19;;;;;;;3.03;0.73;;;;;;;;;;4963725;28;20118;-67
2023/12/09 14:25:50;;;;;;;1.42;0.70;;;;;;;;;;4946754;28;20140;-68
2023/12/09 14:28:17;;;;;;;4.13;1.05;;;;;;;;;;4972292;28;20051;-68
2023/12/09 14:30:44;;;;;;;3.08;0.80;;;;;;;;;;4960357;28;20047;-66
2023/12/09 14:33:11;;;;;;;2.38;0.80;;;;;;;;;;4953359;28;20055;-68
2023/12/09 14:36:16;;;;;;;2.40;0.75;;;;;;;;;;4956859;28;20059;-68
2023/12/09 14:38:43;;;;;;;1.52;0.82;;;;;;;;;;4946278;28;20048;-67
2023/12/09 14:41:14;;;;;;;2.03;0.85;;;;;;;;;;4951738;28;20051;-65
2023/12/09 14:43:41;;;;;;;1.30;0.88;;;;;;;;;;4964461;28;20051;-66